Time;durP1;ratioP1;P1;durP2;ratioP2;P2;SDS_P1;SDS_P2;PMS_P1;PMS_P2;Temp;Humidity;BMP_temperature;BMP_pressure;BME280_temperature;BME280_humidity;BME280_pressure;Samples;Min_cycle;Max_cycle;Signal;HPM_P1;HPM_P2
2020/12/29 03:48:05;;;;;;;2.85;2.63;;;2.40;99.90;;;;;;4890782;28;83816;-85
2020/12/29 03:50:32;;;;;;;3.20;1.70;;;2.00;99.90;;;;;;4881518;28;84684;-85
2020/12/29 03:52:58;;;;;;;2.95;2.15;;;;;;;;;;4875760;28;85920;-85
2020/12/29 03:55:24;;;;;;;2.83;2.63;;;;;;;;;;4893754;28;83970;-86
2020/12/29 03:57:49;;;;;;;1.63;1.52;;;1.90;99.90;;;;;;4893920;28;83902;-86
2020/12/29 04:00:17;;;;;;;3.35;1.70;;;1.80;99.90;;;;;;4894190;28;83298;-86
2020/12/29 04:02:43;;;;;;;2.95;2.75;;;1.70;99.90;;;;;;4895782;28;83850;-85
2020/12/29 04:05:09;;;;;;;3.85;3.13;;;0.80;99.90;;;;;;4893590;28;85070;-85
2020/12/29 04:07:34;;;;;;;2.03;1.60;;;1.40;99.90;;;;;;4894317;28;83906;-86
2020/12/29 04:10:00;;;;;;;1.77;1.48;;;1.40;99.90;;;;;;4900096;28;83698;-85
2020/12/29 04:12:26;;;;;;;2.97;2.78;;;1.10;99.90;;;;;;4889786;28;83658;-86
2020/12/29 04:14:52;;;;;;;2.97;2.78;;;;;;;;;;4881993;28;86223;-86
2020/12/29 04:17:17;;;;;;;3.33;3.05;;;2.10;99.90;;;;;;4900883;28;83671;-86
2020/12/29 04:19:43;;;;;;;3.08;2.88;;;1.80;99.90;;;;;;4894492;28;83814;-85
2020/12/29 04:22:10;;;;;;;3.85;3.25;;;1.50;99.90;;;;;;4894317;28;84986;-84
2020/12/29 04:24:35;;;;;;;2.03;1.70;;;1.10;99.90;;;;;;4894739;28;83893;-85
2020/12/29 04:27:01;;;;;;;2.28;1.70;;;1.10;99.90;;;;;;4894872;28;83493;-85
2020/12/29 04:29:27;;;;;;;2.95;1.77;;;1.10;99.90;;;;;;4895935;28;83854;-85
2020/12/29 04:31:52;;;;;;;2.03;1.83;;;1.20;99.90;;;;;;4896689;28;84161;-86
2020/12/29 04:34:18;;;;;;;4.15;3.10;;;0.80;99.90;;;;;;4896978;28;84750;-86
2020/12/29 04:36:44;;;;;;;3.03;2.15;;;1.00;99.90;;;;;;4895721;28;84274;-86
2020/12/29 04:39:09;;;;;;;4.90;2.92;;;1.00;99.90;;;;;;4895446;28;83656;-86
2020/12/29 04:41:39;;;;;;;3.60;2.88;;;1.00;99.90;;;;;;4905159;28;85357;-87
2020/12/29 04:44:05;;;;;;;4.30;2.95;;;1.00;99.90;;;;;;4909254;28;85193;-86
2020/12/29 04:46:32;;;;;;;5.13;2.65;;;1.00;99.90;;;;;;4878444;28;83651;-86
2020/12/29 04:48:58;;;;;;;3.63;2.38;;;1.00;99.90;;;;;;4854245;29;84133;-85
2020/12/29 04:51:26;;;;;;;4.05;2.38;;;1.00;99.90;;;;;;4855013;29;85210;-85
2020/12/29 04:53:58;;;;;;;3.92;2.13;;;1.00;99.90;;;;;;4856096;29;84293;-86
2020/12/29 04:56:34;;;;;;;2.00;1.80;;;1.00;99.90;;;;;;4838041;29;84074;-85
2020/12/29 04:59:00;;;;;;;3.30;3.10;;;1.20;99.90;;;;;;4861406;29;83142;-85
2020/12/29 05:01:34;;;;;;;2.03;1.83;;;1.10;99.90;;;;;;4851452;29;83864;-85
2020/12/29 05:04:01;;;;;;;2.60;2.10;;;1.00;99.90;;;;;;4845034;29;83917;-86
2020/12/29 05:06:26;;;;;;;3.45;2.63;;;1.00;99.90;;;;;;4854340;29;83657;-83
2020/12/29 05:08:53;;;;;;;3.67;2.28;;;1.00;99.90;;;;;;4845048;29;83594;-86
2020/12/29 05:11:23;;;;;;;3.38;2.40;;;0.90;99.90;;;;;;4846168;29;84360;-85
2020/12/29 05:13:49;;;;;;;3.08;2.15;;;0.90;99.90;;;;;;4867730;29;83731;-86
2020/12/29 05:16:15;;;;;;;1.75;1.63;;;0.90;99.90;;;;;;4860719;29;83747;-86
2020/12/29 05:18:42;;;;;;;1.77;1.67;;;1.00;99.90;;;;;;4866017;29;83219;-85
2020/12/29 05:21:08;;;;;;;2.60;1.70;;;1.10;99.90;;;;;;4858462;29;85670;-86
2020/12/29 05:23:35;;;;;;;1.70;1.60;;;1.10;99.90;;;;;;4855759;29;84010;-85
2020/12/29 05:26:05;;;;;;;2.80;2.00;;;1.20;99.90;;;;;;4865034;29;83991;-85
2020/12/29 05:28:31;;;;;;;2.20;1.80;;;1.20;99.90;;;;;;4856981;29;84102;-85
2020/12/29 05:30:59;;;;;;;2.67;1.95;;;1.20;99.90;;;;;;4854838;29;84225;-85
2020/12/29 05:33:26;;;;;;;2.60;1.90;;;1.30;99.90;;;;;;4857667;29;83550;-85
2020/12/29 05:35:57;;;;;;;2.90;1.90;;;1.30;99.90;;;;;;4858344;29;83509;-86
2020/12/29 05:38:23;;;;;;;3.75;3.45;;;;;;;;;;4858708;29;83703;-85
2020/12/29 05:40:50;;;;;;;3.95;2.28;;;1.30;99.90;;;;;;4862999;29;84173;-85
2020/12/29 05:43:27;;;;;;;3.63;2.08;;;1.40;99.90;;;;;;4861927;29;83815;-85
2020/12/29 05:45:54;;;;;;;3.35;1.70;;;1.40;99.90;;;;;;4862502;29;84111;-85
2020/12/29 05:48:20;;;;;;;2.40;1.90;;;1.40;99.90;;;;;;4877173;29;83672;-85
2020/12/29 05:50:45;;;;;;;2.95;1.90;;;1.40;99.90;;;;;;4877932;29;84841;-86
2020/12/29 05:53:13;;;;;;;1.77;1.42;;;1.50;99.90;;;;;;4880057;29;83727;-86
2020/12/29 05:55:39;;;;;;;3.40;3.20;;;;;;;;;;4879621;29;83675;-85
2020/12/29 05:58:06;;;;;;;2.13;1.55;;;1.50;99.90;;;;;;4879236;28;83481;-85
2020/12/29 06:00:33;;;;;;;1.60;1.50;;;1.60;99.90;;;;;;4885187;28;83864;-86
2020/12/29 06:03:00;;;;;;;2.35;1.75;;;1.70;99.90;;;;;;4878391;28;84084;-86
2020/12/29 06:05:27;;;;;;;4.45;2.10;;;1.70;99.90;;;;;;4879279;28;83616;-88
2020/12/29 06:08:15;;;;;;;2.55;2.10;;;1.80;99.90;;;;;;4882375;28;83765;-87
2020/12/29 06:10:46;;;;;;;2.67;2.13;;;1.70;99.90;;;;;;4875402;29;83781;-87
2020/12/29 06:13:19;;;;;;;2.05;1.83;;;1.50;99.90;;;;;;4879998;29;84366;-87
2020/12/29 06:15:55;;;;;;;2.35;1.75;;;1.50;99.90;;;;;;4856377;29;83939;-87
2020/12/29 06:18:36;;;;;;;4.47;2.10;;;1.50;99.90;;;;;;4878107;28;83810;-88
2020/12/29 06:21:05;;;;;;;3.00;2.05;;;1.40;99.90;;;;;;4879175;29;83802;-87
2020/12/29 06:23:38;;;;;;;4.25;2.10;;;1.30;99.90;;;;;;4878705;29;83456;-87
2020/12/29 06:26:05;;;;;;;3.03;2.45;;;1.40;99.90;;;;;;4876620;29;84232;-87
2020/12/29 06:28:41;;;;;;;2.97;2.20;;;1.50;99.90;;;;;;4878251;29;84037;-87
2020/12/29 06:31:10;;;;;;;3.80;3.40;;;1.60;99.90;;;;;;4876326;28;84948;-87
2020/12/29 06:33:38;;;;;;;3.50;3.15;;;1.40;99.90;;;;;;4878001;28;84568;-87
2020/12/29 06:36:05;;;;;;;3.45;3.20;;;;;;;;;;4877865;28;83844;-87
2020/12/29 06:38:34;;;;;;;3.80;3.13;;;1.40;99.90;;;;;;4885393;28;83493;-87
2020/12/29 06:41:01;;;;;;;3.40;2.58;;;1.30;99.90;;;;;;4883627;28;83850;-87
2020/12/29 06:43:28;;;;;;;2.17;1.80;;;1.30;99.90;;;;;;4881366;29;83781;-87
2020/12/29 06:46:10;;;;;;;2.90;2.60;;;1.20;99.90;;;;;;4878446;29;83643;-87
2020/12/29 06:48:36;;;;;;;3.40;2.28;;;1.30;99.90;;;;;;4857646;29;83906;-87
2020/12/29 06:51:14;;;;;;;3.05;2.05;;;1.30;99.90;;;;;;4859477;29;85352;-87
2020/12/29 06:53:43;;;;;;;4.10;2.50;;;1.20;99.90;;;;;;4853053;29;86053;-88
2020/12/29 06:56:18;;;;;;;2.75;1.98;;;1.20;99.90;;;;;;4860068;29;83702;-88
2020/12/29 06:58:44;;;;;;;4.82;2.20;;;1.30;99.90;;;;;;4857320;29;83671;-87
2020/12/29 07:01:24;;;;;;;4.72;2.40;;;1.30;99.90;;;;;;4860921;29;84518;-86
2020/12/29 07:04:07;;;;;;;3.60;2.10;;;1.40;99.90;;;;;;4868294;29;86295;-86
2020/12/29 07:06:35;;;;;;;4.80;3.10;;;1.50;99.90;;;;;;4855495;29;83906;-86
2020/12/29 07:09:07;;;;;;;2.35;2.25;;;1.50;99.90;;;;;;4863779;29;83293;-85
2020/12/29 07:11:34;;;;;;;2.10;2.00;;;;;;;;;;4859085;29;84868;-86
2020/12/29 07:14:03;;;;;;;2.03;1.92;;;2.10;96.20;;;;;;4865692;29;83924;-86
2020/12/29 07:16:30;;;;;;;1.30;1.20;;;1.80;95.50;;;;;;4859787;29;83816;-85
2020/12/29 07:19:13;;;;;;;2.15;1.50;;;2.00;94.10;;;;;;4860824;29;84050;-86
2020/12/29 07:21:39;;;;;;;3.08;2.33;;;2.20;96.10;;;;;;4858641;29;84003;-86
2020/12/29 07:24:06;;;;;;;2.03;1.35;;;2.10;95.00;;;;;;4860143;29;83933;-86
2020/12/29 07:26:40;;;;;;;1.85;1.58;;;2.20;93.80;;;;;;4861698;29;83614;-89
2020/12/29 07:29:07;;;;;;;2.30;2.05;;;2.40;88.90;;;;;;4856016;29;83588;-89
2020/12/29 07:31:41;;;;;;;2.33;1.98;;;1.60;81.70;;;;;;4857760;29;84293;-88
2020/12/29 07:34:11;;;;;;;2.00;1.90;;;3.30;73.10;;;;;;4856618;29;84001;-87
2020/12/29 07:36:48;;;;;;;2.45;2.35;;;3.90;71.90;;;;;;4856561;29;83763;-84
2020/12/29 07:39:16;;;;;;;2.22;2.13;;;4.40;72.20;;;;;;4855128;29;84120;-84
2020/12/29 07:41:43;;;;;;;2.63;2.00;;;4.00;70.80;;;;;;4857952;29;84366;-85
2020/12/29 07:44:09;;;;;;;4.47;3.35;;;3.90;83.30;;;;;;4854654;29;84324;-85
2020/12/29 07:46:35;;;;;;;6.30;3.58;;;3.60;85.50;;;;;;4851814;29;83706;-86
2020/12/29 07:49:01;;;;;;;5.15;4.18;;;;;;;;;;4851365;29;84567;-84
2020/12/29 07:51:27;;;;;;;4.05;2.92;;;3.50;86.10;;;;;;4862595;29;83861;-84
2020/12/29 07:53:54;;;;;;;3.67;2.55;;;3.30;89.40;;;;;;4865745;29;84376;-84
2020/12/29 07:56:20;;;;;;;4.88;3.05;;;3.00;90.60;;;;;;4865565;29;83719;-83
2020/12/29 07:58:46;;;;;;;3.38;2.75;;;3.00;91.10;;;;;;4846686;29;83995;-84
2020/12/29 08:01:13;;;;;;;4.72;4.32;;;3.00;91.60;;;;;;4866735;29;84829;-83
2020/12/29 08:03:39;;;;;;;4.78;2.95;;;3.00;91.10;;;;;;4871674;29;84158;-85
2020/12/29 08:06:14;;;;;;;5.00;4.50;;;2.50;91.90;;;;;;4858342;29;83776;-82
2020/12/29 08:08:41;;;;;;;4.82;2.70;;;2.90;91.50;;;;;;4836533;29;83824;-83
2020/12/29 08:11:11;;;;;;;5.53;4.30;;;3.00;91.60;;;;;;4860870;29;84157;-83
2020/12/29 08:13:36;;;;;;;3.00;2.80;;;2.90;90.80;;;;;;4862396;29;83905;-82
2020/12/29 08:16:02;;;;;;;4.00;3.47;;;3.10;86.40;;;;;;4834266;29;85337;-85
2020/12/29 08:18:29;;;;;;;3.55;2.10;;;3.30;85.60;;;;;;4855054;29;83762;-84
2020/12/29 08:20:57;;;;;;;2.60;1.85;;;3.60;85.00;;;;;;4861478;29;84525;-82
2020/12/29 08:23:25;;;;;;;2.53;2.00;;;3.90;82.10;;;;;;4856202;29;84828;-84
2020/12/29 08:25:53;;;;;;;3.15;2.67;;;4.70;77.20;;;;;;4864864;29;83887;-85
2020/12/29 08:28:30;;;;;;;4.10;3.05;;;5.40;73.40;;;;;;4846799;29;83867;-83
2020/12/29 08:30:57;;;;;;;4.22;3.80;;;;;;;;;;4862345;29;85095;-84
2020/12/29 08:33:25;;;;;;;3.30;2.50;;;6.30;73.10;;;;;;4865129;29;83937;-85
2020/12/29 08:35:56;;;;;;;3.85;2.00;;;7.00;69.30;;;;;;4851139;29;83964;-83
2020/12/29 08:38:25;;;;;;;3.33;3.03;;;7.20;65.60;;;;;;4858389;29;84300;-81
2020/12/29 08:41:03;;;;;;;1.15;1.02;;;7.50;66.40;;;;;;4852604;29;85068;-82
2020/12/29 08:43:29;;;;;;;6.55;3.33;;;7.50;65.60;;;;;;4858030;29;84136;-83
2020/12/29 08:46:07;;;;;;;4.10;3.40;;;8.00;65.70;;;;;;4852256;29;83836;-83
2020/12/29 08:48:33;;;;;;;4.20;2.78;;;8.50;63.50;;;;;;4875661;28;83694;-85
2020/12/29 08:51:00;;;;;;;2.47;2.20;;;8.50;63.60;;;;;;4880944;28;85112;-85
2020/12/29 08:53:29;;;;;;;3.70;3.40;;;8.50;59.60;;;;;;4889561;28;83865;-86
2020/12/29 08:55:55;;;;;;;7.30;4.68;;;7.90;61.50;;;;;;4862078;29;83984;-86
2020/12/29 08:58:25;;;;;;;4.95;3.47;;;8.30;62.40;;;;;;4883108;28;84111;-86
2020/12/29 09:00:52;;;;;;;5.60;3.63;;;8.40;61.00;;;;;;4892433;28;84610;-88
2020/12/29 09:03:28;;;;;;;6.45;3.60;;;7.90;62.40;;;;;;4887784;28;83891;-87
2020/12/29 09:05:54;;;;;;;7.07;3.92;;;;;;;;;;4876150;28;83690;-87
2020/12/29 09:08:28;;;;;;;7.75;4.07;;;7.00;64.20;;;;;;4876641;28;84173;-84
2020/12/29 09:11:13;;;;;;;7.75;3.65;;;6.30;65.30;;;;;;4885858;28;87569;-87
2020/12/29 09:14:03;;;;;;;3.30;3.00;;;5.50;70.50;;;;;;4883431;28;83848;-86
2020/12/29 09:16:29;;;;;;;3.65;3.35;;;5.70;71.30;;;;;;4875955;28;83912;-86
2020/12/29 09:18:55;;;;;;;4.40;3.33;;;;;;;;;;4885150;28;83513;-86
2020/12/29 09:21:25;;;;;;;4.07;3.55;;;6.10;70.20;;;;;;4877956;28;84483;-84
2020/12/29 09:23:57;;;;;;;3.70;3.30;;;6.20;67.10;;;;;;4876106;29;83867;-82
2020/12/29 09:26:23;;;;;;;3.38;2.90;;;6.20;68.00;;;;;;4878915;28;83884;-84
2020/12/29 09:28:49;;;;;;;2.80;2.60;;;6.10;67.90;;;;;;4882012;28;83993;-84
2020/12/29 09:31:14;;;;;;;2.83;1.75;;;6.10;67.60;;;;;;4884455;28;83551;-85
2020/12/29 09:33:41;;;;;;;3.20;2.92;;;;;;;;;;4883957;28;83973;-86
2020/12/29 09:36:25;;;;;;;5.47;3.65;;;5.80;66.50;;;;;;4875480;28;84562;-83
2020/12/29 09:38:55;;;;;;;7.53;4.15;;;5.60;69.00;;;;;;4879685;28;83713;-87
2020/12/29 09:41:21;;;;;;;5.40;2.75;;;5.60;69.40;;;;;;4883138;28;84825;-87
2020/12/29 09:43:48;;;;;;;5.97;3.63;;;5.20;69.50;;;;;;4877236;28;83975;-86
2020/12/29 09:46:14;;;;;;;3.63;2.88;;;5.50;68.80;;;;;;4883460;28;85019;-86
2020/12/29 09:48:41;;;;;;;4.07;3.17;;;5.60;68.70;;;;;;4885298;28;84376;-83
2020/12/29 09:51:11;;;;;;;4.00;2.47;;;5.90;68.20;;;;;;4877655;28;84107;-86
2020/12/29 09:53:36;;;;;;;4.55;2.70;;;5.70;66.30;;;;;;4878778;28;84018;-84
2020/12/29 09:56:02;;;;;;;2.97;2.67;;;;;;;;;;4876141;28;83572;-84
2020/12/29 09:58:28;;;;;;;3.28;2.97;;;;;;;;;;4877130;28;83623;-83
2020/12/29 10:00:55;;;;;;;4.75;3.22;;;;;;;;;;4874552;28;84066;-88
2020/12/29 10:03:21;;;;;;;3.33;2.70;;;;;;;;;;4880370;29;84226;-88
2020/12/29 10:05:48;;;;;;;2.78;2.58;;;7.70;60.90;;;;;;4880620;28;83764;-89
2020/12/29 10:08:14;;;;;;;2.90;2.70;;;7.90;60.10;;;;;;4861292;28;83554;-89
2020/12/29 10:10:40;;;;;;;2.42;2.22;;;;;;;;;;4884941;28;84989;-87
2020/12/29 10:13:06;;;;;;;3.63;3.28;;;;;;;;;;4877097;29;84586;-88
2020/12/29 10:15:32;;;;;;;3.30;3.00;;;;;;;;;;4877209;28;83885;-88
2020/12/29 10:18:00;;;;;;;4.47;2.80;;;8.10;60.40;;;;;;4873892;28;83900;-88
2020/12/29 10:20:26;;;;;;;3.08;2.78;;;8.30;59.70;;;;;;4880782;28;83724;-84
2020/12/29 10:22:51;;;;;;;4.57;2.78;;;8.00;58.50;;;;;;4871490;28;83975;-83
2020/12/29 10:25:17;;;;;;;4.22;3.90;;;7.90;60.70;;;;;;4871074;28;84149;-87
2020/12/29 10:27:45;;;;;;;2.80;2.60;;;8.40;60.30;;;;;;4873532;28;84216;-87
2020/12/29 10:30:11;;;;;;;3.72;3.03;;;8.30;61.20;;;;;;4882038;28;83955;-87
2020/12/29 10:32:38;;;;;;;3.40;3.05;;;8.30;58.10;;;;;;4874930;28;85833;-86
2020/12/29 10:35:04;;;;;;;5.63;2.85;;;8.10;60.70;;;;;;4878048;28;84111;-87
2020/12/29 10:37:31;;;;;;;3.55;3.25;;;8.00;61.30;;;;;;4874982;28;83600;-84
2020/12/29 10:39:56;;;;;;;3.58;3.05;;;8.00;61.80;;;;;;4875732;28;84013;-84
2020/12/29 10:42:22;;;;;;;4.25;3.28;;;7.80;64.40;;;;;;4873230;28;83236;-83
2020/12/29 10:44:50;;;;;;;4.18;3.78;;;7.80;64.60;;;;;;4879164;28;83831;-84
2020/12/29 10:47:16;;;;;;;3.50;3.20;;;7.80;64.60;;;;;;4873825;28;83838;-83
2020/12/29 10:49:42;;;;;;;3.70;3.40;;;;;;;;;;4876051;28;83703;-88
2020/12/29 10:52:08;;;;;;;5.30;3.58;;;8.00;65.00;;;;;;4879158;28;83895;-86
2020/12/29 10:54:33;;;;;;;5.30;3.03;;;8.30;64.10;;;;;;4871324;28;83528;-86
2020/12/29 10:56:59;;;;;;;3.67;3.17;;;8.10;64.40;;;;;;4880166;28;83857;-85
2020/12/29 10:59:25;;;;;;;4.22;3.58;;;7.90;66.80;;;;;;4878266;29;84140;-86
2020/12/29 11:01:57;;;;;;;4.35;3.20;;;7.60;68.00;;;;;;4878166;28;83850;-84
2020/12/29 11:04:23;;;;;;;5.57;4.07;;;7.60;68.90;;;;;;4855395;29;84155;-86
2020/12/29 11:06:49;;;;;;;4.90;4.07;;;8.00;69.10;;;;;;4878535;28;83187;-86
2020/12/29 11:09:15;;;;;;;4.93;3.00;;;7.90;69.50;;;;;;4875261;28;85257;-86
2020/12/29 11:11:41;;;;;;;4.43;4.03;;;8.20;67.90;;;;;;4878121;28;83991;-86
2020/12/29 11:14:06;;;;;;;4.55;3.65;;;8.50;65.10;;;;;;4881890;28;83092;-85
2020/12/29 11:16:32;;;;;;;5.93;4.43;;;8.60;66.30;;;;;;4877164;28;83593;-86
2020/12/29 11:18:58;;;;;;;4.72;3.58;;;8.60;66.10;;;;;;4872732;28;83673;-85
2020/12/29 11:21:24;;;;;;;5.15;3.60;;;8.70;66.90;;;;;;4879427;28;83933;-85
2020/12/29 11:23:50;;;;;;;5.72;4.45;;;8.60;67.30;;;;;;4874170;28;83840;-85
2020/12/29 11:26:18;;;;;;;8.40;5.07;;;8.60;65.80;;;;;;4872270;29;84299;-83
2020/12/29 11:28:44;;;;;;;6.97;4.65;;;8.80;66.50;;;;;;4876180;28;84367;-86
2020/12/29 11:31:18;;;;;;;5.07;4.40;;;9.00;65.10;;;;;;4880326;28;84935;-85
2020/12/29 11:33:44;;;;;;;6.10;4.00;;;9.00;65.20;;;;;;4880215;28;83931;-85
2020/12/29 11:36:15;;;;;;;5.72;3.92;;;9.00;65.40;;;;;;4877153;28;83616;-85
2020/12/29 11:38:41;;;;;;;6.90;3.70;;;9.40;64.70;;;;;;4874715;28;83439;-85
2020/12/29 11:41:06;;;;;;;5.75;4.47;;;9.30;63.40;;;;;;4872285;29;83837;-85
2020/12/29 11:43:32;;;;;;;6.00;3.90;;;9.50;63.90;;;;;;4870638;28;86348;-86
2020/12/29 11:45:58;;;;;;;4.88;4.18;;;9.40;62.60;;;;;;4873093;28;83916;-85
2020/12/29 11:48:24;;;;;;;7.97;4.57;;;9.50;61.90;;;;;;4872421;28;84374;-85
2020/12/29 11:50:53;;;;;;;6.82;4.97;;;9.20;63.80;;;;;;4876132;28;84949;-84
2020/12/29 11:53:19;;;;;;;7.90;5.20;;;9.40;64.30;;;;;;4873078;28;83764;-85
2020/12/29 11:55:45;;;;;;;5.97;4.30;;;9.30;64.40;;;;;;4875617;28;83495;-86
2020/12/29 11:58:11;;;;;;;6.63;3.92;;;9.30;64.90;;;;;;4872560;28;83650;-85
2020/12/29 12:00:37;;;;;;;7.95;5.45;;;9.40;65.30;;;;;;4875145;28;83948;-86
2020/12/29 12:03:03;;;;;;;5.95;5.00;;;;;;;;;;4886435;28;84372;-86
2020/12/29 12:05:29;;;;;;;5.57;5.03;;;9.30;62.90;;;;;;4890157;28;83761;-84
2020/12/29 12:07:55;;;;;;;5.45;4.72;;;;;;;;;;4886978;28;84180;-86
2020/12/29 12:10:21;;;;;;;7.45;4.68;;;9.20;63.90;;;;;;4891070;28;84059;-86
2020/12/29 12:12:46;;;;;;;4.65;4.18;;;9.40;64.00;;;;;;4890619;28;83462;-85
2020/12/29 12:15:12;;;;;;;6.55;3.88;;;9.40;64.60;;;;;;4892007;28;84012;-85
2020/12/29 12:17:38;;;;;;;6.90;4.80;;;9.30;63.80;;;;;;4894338;28;84949;-86
2020/12/29 12:20:04;;;;;;;6.38;4.50;;;9.30;63.80;;;;;;4892703;28;83465;-86
2020/12/29 12:22:30;;;;;;;7.32;4.55;;;;;;;;;;4889489;28;83997;-86
2020/12/29 12:24:56;;;;;;;7.25;4.53;;;9.40;64.30;;;;;;4880339;28;83735;-86
2020/12/29 12:27:22;;;;;;;5.65;4.78;;;9.30;62.60;;;;;;4890803;28;84383;-86
2020/12/29 12:29:48;;;;;;;5.32;4.20;;;9.00;61.80;;;;;;4890556;28;84295;-86
2020/12/29 12:32:13;;;;;;;8.85;4.80;;;9.10;63.10;;;;;;4890695;28;83842;-87
2020/12/29 12:34:39;;;;;;;5.22;3.40;;;9.20;62.20;;;;;;4890403;28;83623;-85
2020/12/29 12:37:05;;;;;;;4.60;2.67;;;9.20;62.70;;;;;;4893742;28;85201;-86
2020/12/29 12:39:31;;;;;;;6.10;3.67;;;9.20;61.40;;;;;;4890505;28;86056;-86
2020/12/29 12:41:57;;;;;;;8.10;3.67;;;9.20;61.80;;;;;;4898224;28;85887;-86
2020/12/29 12:44:23;;;;;;;5.13;3.88;;;9.10;62.00;;;;;;4894128;28;83873;-86
2020/12/29 12:46:48;;;;;;;4.00;3.60;;;9.10;62.70;;;;;;4875241;28;84584;-85
2020/12/29 12:49:14;;;;;;;5.82;3.50;;;8.90;62.30;;;;;;4857088;29;84339;-86
2020/12/29 12:51:47;;;;;;;4.97;4.03;;;8.90;64.30;;;;;;4853304;29;83833;-85
2020/12/29 12:54:13;;;;;;;5.35;4.45;;;8.70;64.90;;;;;;4863133;29;83648;-85
2020/12/29 12:56:42;;;;;;;6.13;3.75;;;8.70;65.40;;;;;;4854470;29;84210;-85
2020/12/29 12:59:10;;;;;;;7.53;5.22;;;8.40;64.30;;;;;;4854525;29;84186;-85
2020/12/29 13:01:35;;;;;;;5.82;4.93;;;8.60;64.80;;;;;;4854196;29;84225;-84
2020/12/29 13:04:01;;;;;;;4.72;4.22;;;8.40;65.00;;;;;;4855121;29;83651;-84
2020/12/29 13:06:27;;;;;;;7.10;5.10;;;;;;;;;;4856460;29;84076;-85
2020/12/29 13:08:56;;;;;;;11.48;6.00;;;8.20;66.00;;;;;;4851906;29;83649;-85
2020/12/29 13:11:22;;;;;;;6.57;4.43;;;8.30;66.50;;;;;;4859542;29;83577;-85
2020/12/29 13:13:48;;;;;;;5.55;4.35;;;;;;;;;;4836520;29;83766;-85
2020/12/29 13:16:23;;;;;;;6.18;4.45;;;8.60;66.20;;;;;;4853447;29;83835;-85
2020/12/29 13:18:51;;;;;;;7.18;4.78;;;8.60;65.80;;;;;;4853272;29;83977;-86
2020/12/29 13:21:17;;;;;;;6.50;4.75;;;8.80;66.10;;;;;;4855531;29;84146;-85
2020/12/29 13:23:43;;;;;;;7.38;5.20;;;8.80;65.90;;;;;;4857167;29;83716;-86
2020/12/29 13:26:13;;;;;;;8.43;6.00;;;8.70;66.20;;;;;;4857787;29;83511;-85
2020/12/29 13:28:40;;;;;;;8.90;7.00;;;8.90;66.20;;;;;;4857595;29;83744;-84
2020/12/29 13:31:10;;;;;;;8.82;6.22;;;9.10;66.00;;;;;;4858079;29;83694;-85
2020/12/29 13:33:40;;;;;;;8.80;5.33;;;9.00;65.40;;;;;;4870972;29;82966;-84
2020/12/29 13:36:07;;;;;;;7.10;4.60;;;9.00;65.10;;;;;;4875194;28;84828;-84
2020/12/29 13:38:33;;;;;;;5.10;3.95;;;9.20;65.60;;;;;;4873745;29;83899;-85
2020/12/29 13:41:00;;;;;;;13.35;5.90;;;9.00;65.90;;;;;;4875397;29;83482;-85
2020/12/29 13:43:30;;;;;;;16.92;9.13;;;9.20;65.50;;;;;;4878954;28;83907;-86
2020/12/29 13:45:56;;;;;;;11.82;6.53;;;9.20;65.90;;;;;;4869789;28;84156;-85
2020/12/29 13:48:22;;;;;;;6.35;4.43;;;9.30;65.80;;;;;;4876561;28;87304;-85
2020/12/29 13:50:49;;;;;;;4.55;3.38;;;9.30;66.00;;;;;;4883488;28;83491;-86
2020/12/29 13:53:15;;;;;;;4.63;3.00;;;;;;;;;;4875750;29;84065;-84
2020/12/29 13:55:44;;;;;;;8.80;5.60;;;9.50;65.40;;;;;;4875987;28;84568;-83
2020/12/29 13:58:09;;;;;;;8.15;4.95;;;9.60;65.20;;;;;;4887067;28;84654;-86
2020/12/29 14:00:35;;;;;;;8.07;5.32;;;9.60;65.10;;;;;;4879048;28;84069;-86
2020/12/29 14:03:01;;;;;;;24.63;13.95;;;9.70;64.60;;;;;;4880238;28;84174;-86
2020/12/29 14:05:26;;;;;;;13.63;7.43;;;9.80;64.40;;;;;;4881534;28;83948;-86
2020/12/29 14:07:52;;;;;;;9.27;5.07;;;9.80;64.30;;;;;;4877130;28;83720;-85
2020/12/29 14:10:19;;;;;;;10.50;5.00;;;9.80;63.80;;;;;;4879242;28;83883;-86
2020/12/29 14:12:45;;;;;;;7.80;4.50;;;10.00;63.90;;;;;;4880432;28;84056;-86
2020/12/29 14:15:11;;;;;;;5.45;4.63;;;9.80;64.30;;;;;;4875422;28;84042;-86
2020/12/29 14:17:37;;;;;;;4.68;2.85;;;9.70;64.70;;;;;;4880536;28;83839;-86
2020/12/29 14:20:04;;;;;;;4.03;2.92;;;9.60;63.90;;;;;;4876118;28;83516;-85
2020/12/29 14:22:30;;;;;;;4.20;3.90;;;9.50;64.40;;;;;;4875273;28;83587;-85
2020/12/29 14:24:56;;;;;;;7.15;5.03;;;;;;;;;;4880992;28;84296;-86
2020/12/29 14:27:21;;;;;;;4.22;3.30;;;9.40;64.60;;;;;;4873173;28;83670;-86
2020/12/29 14:29:48;;;;;;;9.15;6.32;;;9.50;64.80;;;;;;4871845;29;83708;-84
2020/12/29 14:32:13;;;;;;;7.93;4.43;;;9.00;65.60;;;;;;4875025;28;83693;-86
2020/12/29 14:34:39;;;;;;;5.75;4.03;;;8.80;67.70;;;;;;4878238;28;84387;-86
2020/12/29 14:37:05;;;;;;;4.53;3.65;;;8.40;68.70;;;;;;4876241;29;84742;-86
2020/12/29 14:39:31;;;;;;;4.15;2.70;;;8.50;69.20;;;;;;4875007;28;84498;-85
2020/12/29 14:41:57;;;;;;;5.15;4.13;;;;;;;;;;4869931;29;83492;-86
2020/12/29 14:44:23;;;;;;;5.47;4.22;;;;;;;;;;4882562;28;84260;-86
2020/12/29 14:46:50;;;;;;;8.18;4.15;;;7.60;72.70;;;;;;4865592;29;84145;-84
2020/12/29 14:49:16;;;;;;;6.28;3.90;;;7.60;73.10;;;;;;4856577;29;83927;-85
2020/12/29 14:51:42;;;;;;;5.43;2.65;;;7.50;73.40;;;;;;4855871;29;83533;-85
2020/12/29 14:54:08;;;;;;;5.88;3.95;;;7.40;73.40;;;;;;4855075;29;83807;-85
2020/12/29 14:56:37;;;;;;;7.63;5.82;;;7.20;74.10;;;;;;4851867;29;84031;-85
2020/12/29 14:59:04;;;;;;;6.50;4.05;;;7.20;74.40;;;;;;4855381;29;83774;-86
2020/12/29 15:01:37;;;;;;;5.32;3.55;;;7.20;74.90;;;;;;4846464;29;83727;-84
2020/12/29 15:04:05;;;;;;;12.75;7.05;;;7.00;74.90;;;;;;4856403;29;84544;-84
2020/12/29 15:06:33;;;;;;;14.98;6.65;;;7.00;75.40;;;;;;4857774;29;84197;-85
2020/12/29 15:09:01;;;;;;;15.15;8.13;;;6.90;75.40;;;;;;4856353;29;83757;-83
2020/12/29 15:11:28;;;;;;;14.20;7.93;;;6.80;75.20;;;;;;4855358;29;84376;-87
2020/12/29 15:13:55;;;;;;;11.20;6.45;;;6.70;76.30;;;;;;4856151;29;84336;-84
2020/12/29 15:16:21;;;;;;;8.80;5.55;;;;;;;;;;4855064;29;83588;-83
2020/12/29 15:18:48;;;;;;;10.25;4.55;;;6.40;76.50;;;;;;4853134;29;84016;-84
2020/12/29 15:21:14;;;;;;;9.70;4.72;;;6.50;77.00;;;;;;4838755;29;83903;-83
2020/12/29 15:23:40;;;;;;;5.43;3.70;;;6.20;78.00;;;;;;4853633;29;84199;-84
2020/12/29 15:26:08;;;;;;;5.13;3.55;;;5.70;78.30;;;;;;4858989;29;85967;-85
2020/12/29 15:28:35;;;;;;;4.10;3.42;;;5.80;79.00;;;;;;4850790;29;83583;-83
2020/12/29 15:31:01;;;;;;;8.30;4.70;;;5.70;79.20;;;;;;4859824;29;84029;-85
2020/12/29 15:33:27;;;;;;;7.40;5.20;;;5.60;79.20;;;;;;4857936;29;85075;-83
2020/12/29 15:35:53;;;;;;;7.63;4.65;;;5.70;79.50;;;;;;4857145;29;84331;-82
2020/12/29 15:38:19;;;;;;;8.00;4.65;;;5.30;79.80;;;;;;4859418;29;83628;-84
2020/12/29 15:40:45;;;;;;;7.32;4.90;;;5.20;79.90;;;;;;4856459;29;83888;-84
2020/12/29 15:43:12;;;;;;;7.88;5.10;;;;;;;;;;4852448;29;84345;-85
2020/12/29 15:45:37;;;;;;;5.70;4.03;;;5.10;80.70;;;;;;4855183;29;84238;-84
2020/12/29 15:48:03;;;;;;;7.05;5.90;;;4.90;82.20;;;;;;4874189;28;84202;-83
2020/12/29 15:50:29;;;;;;;15.27;13.68;;;;;;;;;;4876483;28;83846;-86
2020/12/29 15:52:59;;;;;;;12.63;10.75;;;4.60;82.70;;;;;;4873640;28;84071;-84
2020/12/29 15:55:28;;;;;;;9.32;6.13;;;4.50;83.20;;;;;;4874584;28;84072;-82
2020/12/29 15:57:54;;;;;;;6.95;5.78;;;4.50;84.10;;;;;;4876455;28;83738;-84
2020/12/29 16:00:20;;;;;;;11.10;7.18;;;4.30;84.40;;;;;;4870828;28;85138;-85
2020/12/29 16:02:46;;;;;;;8.40;6.80;;;;;;;;;;4875000;28;83830;-85
2020/12/29 16:05:12;;;;;;;7.28;5.45;;;4.10;87.60;;;;;;4874704;28;83489;-84
2020/12/29 16:07:38;;;;;;;9.00;6.65;;;;;;;;;;4879870;28;83788;-85
2020/12/29 16:10:05;;;;;;;14.20;9.63;;;3.90;86.90;;;;;;4878684;28;83488;-84
2020/12/29 16:12:31;;;;;;;11.45;9.38;;;4.00;87.60;;;;;;4874555;28;85132;-85
2020/12/29 16:14:57;;;;;;;14.18;7.82;;;4.10;88.30;;;;;;4875227;28;83897;-84
2020/12/29 16:17:23;;;;;;;14.10;6.97;;;4.10;89.20;;;;;;4873957;28;83694;-85
2020/12/29 16:19:49;;;;;;;11.95;7.13;;;4.10;90.10;;;;;;4878984;28;83872;-84
2020/12/29 16:22:15;;;;;;;9.98;6.68;;;4.10;90.10;;;;;;4878770;28;83761;-82
2020/12/29 16:24:42;;;;;;;8.85;6.28;;;4.20;90.30;;;;;;4872564;28;83886;-83
2020/12/29 16:27:11;;;;;;;10.60;6.72;;;4.30;90.00;;;;;;4871123;28;84143;-83
2020/12/29 16:29:38;;;;;;;9.57;6.05;;;4.30;91.10;;;;;;4873789;28;84303;-85
2020/12/29 16:32:04;;;;;;;7.13;5.13;;;4.40;91.70;;;;;;4870738;28;84139;-84
2020/12/29 16:34:30;;;;;;;8.35;5.22;;;;;;;;;;4871117;28;83827;-84
2020/12/29 16:36:56;;;;;;;5.47;4.50;;;4.50;91.50;;;;;;4875320;28;83804;-84
2020/12/29 16:39:22;;;;;;;8.10;5.05;;;4.40;91.30;;;;;;4871388;28;83761;-87
2020/12/29 16:41:48;;;;;;;8.00;5.57;;;;;;;;;;4873497;28;84185;-84
2020/12/29 16:44:14;;;;;;;7.07;5.20;;;;;;;;;;4858312;29;83912;-84
2020/12/29 16:46:42;;;;;;;5.72;4.95;;;4.30;92.40;;;;;;4867518;29;83746;-85
2020/12/29 16:49:08;;;;;;;12.63;7.28;;;;;;;;;;4873007;28;83748;-85
2020/12/29 16:51:35;;;;;;;10.95;6.05;;;4.10;93.10;;;;;;4871065;28;85504;-84
2020/12/29 16:54:02;;;;;;;10.20;6.10;;;4.20;93.10;;;;;;4870629;28;83873;-83
2020/12/29 16:56:28;;;;;;;9.93;6.05;;;4.20;93.10;;;;;;4875948;28;83836;-84